createdAt,value
2019-03-17T00:01:57.049Z,88.05
2019-03-17T00:04:30.684Z,87.82
2019-03-17T00:06:50.264Z,87.45
2019-03-17T00:09:21.867Z,87.37
2019-03-17T00:11:51.079Z,87.89
2019-03-17T00:14:20.347Z,88.34
2019-03-17T00:16:49.542Z,88.33
2019-03-17T00:19:20.768Z,88.12
2019-03-17T00:21:53.337Z,88.05
2019-03-17T00:24:25.327Z,88.13
2019-03-17T00:26:56.394Z,86.11
2019-03-17T00:29:25.650Z,87.18
2019-03-17T00:31:54.999Z,87.15
2019-03-17T00:34:24.166Z,86.33
2019-03-17T00:36:53.561Z,87.69
2019-03-17T00:39:48.868Z,86.41
2019-03-17T00:42:18.331Z,86.56
2019-03-17T00:44:55.626Z,86.88
2019-03-17T00:47:26.631Z,86.87
2019-03-17T00:49:56.838Z,87.43
2019-03-17T00:52:51.324Z,86.93
2019-03-17T00:55:31.752Z,87.06
2019-03-17T00:58:00.946Z,87.90
2019-03-17T01:00:32.184Z,87.66
2019-03-17T01:03:01.503Z,87.93
2019-03-17T01:05:31.432Z,88.08
2019-03-17T01:08:01.043Z,86.28
2019-03-17T01:10:30.249Z,86.74
2019-03-17T01:12:59.619Z,87.49
2019-03-17T01:15:28.842Z,85.49
2019-03-17T01:17:58.333Z,87.05
2019-03-17T01:20:27.704Z,87.11
2019-03-17T01:22:57.001Z,85.73
2019-03-17T01:25:26.241Z,86.15
2019-03-17T01:27:55.377Z,86.83
2019-03-17T01:30:31.443Z,86.68
2019-03-17T01:33:00.276Z,87.22
2019-03-17T01:35:37.054Z,87.35
2019-03-17T01:38:37.527Z,86.99
2019-03-17T01:41:06.891Z,86.27
2019-03-17T01:43:36.560Z,85.75
2019-03-17T01:46:05.925Z,85.18
2019-03-17T01:48:50.261Z,86.18
2019-03-17T01:51:19.444Z,86.57
2019-03-17T01:53:48.963Z,86.38
2019-03-17T01:56:18.230Z,86.52
2019-03-17T01:58:47.657Z,87.43
2019-03-17T02:01:21.106Z,87.17
2019-03-17T02:03:50.356Z,86.62
2019-03-17T02:06:19.654Z,87.10
2019-03-17T02:08:52.995Z,87.47
2019-03-17T02:11:22.255Z,86.85
2019-03-17T02:13:56.137Z,86.43
2019-03-17T02:16:30.803Z,87.03
2019-03-17T02:19:00.543Z,86.19
2019-03-17T02:21:30.605Z,85.92
2019-03-17T02:23:59.784Z,85.43
2019-03-17T02:26:29.150Z,85.47
2019-03-17T02:29:06.649Z,86.32
2019-03-17T02:31:33.093Z,86.73
2019-03-17T02:34:02.322Z,86.06
2019-03-17T02:36:36.564Z,85.53
2019-03-17T02:39:08.025Z,86.82
2019-03-17T02:41:37.245Z,87.13
2019-03-17T02:44:06.599Z,86.09
2019-03-17T02:46:35.851Z,86.76
2019-03-17T02:49:05.449Z,86.38
2019-03-17T02:51:34.596Z,85.57
2019-03-17T02:54:03.838Z,85.85
2019-03-17T02:56:33.090Z,85.46
2019-03-17T02:59:02.301Z,87.28
2019-03-17T03:01:31.529Z,87.02
2019-03-17T03:04:01.065Z,86.76
2019-03-17T03:06:30.203Z,85.95
2019-03-17T03:08:59.483Z,86.04
2019-03-17T03:11:28.737Z,86.39
2019-03-17T03:13:58.244Z,85.52
2019-03-17T03:16:27.412Z,84.76
2019-03-17T03:18:56.601Z,84.13
2019-03-17T03:21:25.844Z,84.56
2019-03-17T03:23:55.101Z,85.69
2019-03-17T03:26:24.212Z,84.95
2019-03-17T03:28:53.556Z,85.31
2019-03-17T03:31:22.749Z,85.82
2019-03-17T03:33:52.360Z,85.65
2019-03-17T03:36:21.536Z,85.65
2019-03-17T03:38:55.521Z,85.13
2019-03-17T03:41:24.891Z,84.73
2019-03-17T03:43:54.119Z,85.09
2019-03-17T03:46:23.457Z,85.58
2019-03-17T03:49:18.747Z,84.83
2019-03-17T03:51:39.288Z,84.92
2019-03-17T03:54:08.930Z,85.53
2019-03-17T03:56:48.636Z,85.70
2019-03-17T03:59:17.956Z,85.73
2019-03-17T04:01:47.177Z,84.32
2019-03-17T04:04:16.325Z,84.96
2019-03-17T04:06:45.445Z,83.72
2019-03-17T04:09:14.602Z,85.29
2019-03-17T04:11:44.087Z,85.30
2019-03-17T04:14:13.337Z,85.12
2019-03-17T04:16:42.490Z,85.87
2019-03-17T04:19:11.703Z,85.63
2019-03-17T04:21:40.868Z,86.21
2019-03-17T04:24:10.083Z,85.85
2019-03-17T04:26:39.198Z,85.57
2019-03-17T04:29:08.331Z,86.38
2019-03-17T04:31:37.763Z,86.07
2019-03-17T04:34:06.883Z,86.60
2019-03-17T04:36:40.549Z,86.60
2019-03-17T04:39:08.071Z,86.49
2019-03-17T04:41:37.195Z,86.50
2019-03-17T04:44:06.310Z,86.56
2019-03-17T04:46:35.456Z,86.48
2019-03-17T04:49:04.690Z,84.88
2019-03-17T04:51:33.889Z,84.52
2019-03-17T04:54:03.290Z,86.06
2019-03-17T04:56:32.525Z,85.93
2019-03-17T04:59:01.650Z,86.70
2019-03-17T05:01:31.127Z,86.79
2019-03-17T05:04:00.253Z,87.34
2019-03-17T05:06:29.414Z,87.31
2019-03-17T05:08:58.529Z,87.38
2019-03-17T05:11:27.685Z,86.70
2019-03-17T05:13:56.819Z,84.90
2019-03-17T05:16:26.280Z,84.22
2019-03-17T05:18:55.406Z,83.59
2019-03-17T05:21:24.563Z,84.96
2019-03-17T05:23:53.716Z,85.24
2019-03-17T05:26:22.891Z,85.99
2019-03-17T05:28:52.020Z,83.67
2019-03-17T05:31:21.244Z,85.90
2019-03-17T05:33:50.382Z,85.62
2019-03-17T05:36:19.777Z,85.53
2019-03-17T05:38:49.345Z,86.00
2019-03-17T05:41:18.532Z,86.54
2019-03-17T05:43:47.665Z,85.77
2019-03-17T05:46:16.894Z,85.52
2019-03-17T05:48:46.061Z,85.80
2019-03-17T05:51:15.240Z,86.25
2019-03-17T05:53:44.350Z,87.06
2019-03-17T05:56:13.555Z,86.41
2019-03-17T05:58:42.659Z,86.91
2019-03-17T06:01:11.876Z,85.79
2019-03-17T06:03:41.313Z,86.71
2019-03-17T06:06:10.563Z,85.94
2019-03-17T06:08:39.608Z,86.53
2019-03-17T06:11:08.910Z,86.53
2019-03-17T06:13:38.077Z,86.61
2019-03-17T06:16:07.678Z,85.46
2019-03-17T06:18:36.984Z,85.36
2019-03-17T06:21:06.117Z,85.58
2019-03-17T06:23:35.248Z,84.68
2019-03-17T06:26:04.408Z,84.51
2019-03-17T06:28:33.526Z,84.90
2019-03-17T06:31:02.665Z,84.82
2019-03-17T06:33:31.945Z,85.56
2019-03-17T06:36:01.111Z,85.15
2019-03-17T06:38:30.239Z,84.60
2019-03-17T06:40:59.362Z,84.59
2019-03-17T06:43:28.514Z,85.18
2019-03-17T06:45:57.642Z,84.58
2019-03-17T06:48:27.194Z,84.32
2019-03-17T06:50:56.341Z,83.64
2019-03-17T06:53:25.543Z,82.23
2019-03-17T06:55:54.824Z,82.23
2019-03-17T06:58:23.998Z,83.08
2019-03-17T07:00:53.197Z,82.37
2019-03-17T07:03:22.313Z,81.51
2019-03-17T07:05:51.460Z,82.92
2019-03-17T07:08:20.608Z,83.35
2019-03-17T07:10:49.942Z,82.51
2019-03-17T07:13:19.111Z,83.18
2019-03-17T07:15:48.282Z,83.15
2019-03-17T07:18:17.511Z,83.40
2019-03-17T07:20:46.774Z,83.47
2019-03-17T07:23:15.969Z,83.10
2019-03-17T07:25:45.338Z,83.10
2019-03-17T07:28:14.583Z,83.72
2019-03-17T07:30:44.175Z,84.13
2019-03-17T07:33:13.345Z,83.11
2019-03-17T07:35:42.469Z,82.20
2019-03-17T07:38:11.844Z,83.35
2019-03-17T07:40:41.518Z,83.35
2019-03-17T07:43:10.958Z,83.01
2019-03-17T07:45:40.295Z,83.42
2019-03-17T07:48:09.439Z,83.35
2019-03-17T07:50:38.650Z,83.92
2019-03-17T07:53:07.870Z,83.19
2019-03-17T07:55:37.312Z,82.47
2019-03-17T07:58:06.466Z,83.28
2019-03-17T08:00:35.599Z,82.47
2019-03-17T08:03:04.760Z,83.30
2019-03-17T08:05:33.866Z,82.71
2019-03-17T08:08:09.328Z,83.36
2019-03-17T08:10:33.877Z,83.43
2019-03-17T08:13:03.030Z,84.26
2019-03-17T08:15:32.185Z,84.42
2019-03-17T08:18:01.315Z,84.52
2019-03-17T08:20:30.469Z,84.28
2019-03-17T08:22:59.604Z,84.51
2019-03-17T08:25:28.733Z,84.67
2019-03-17T08:27:58.142Z,84.13
2019-03-17T08:30:27.241Z,84.43
2019-03-17T08:32:56.403Z,84.33
2019-03-17T08:35:25.518Z,83.04
2019-03-17T08:37:54.746Z,81.17
2019-03-17T08:40:24.142Z,82.53
2019-03-17T08:42:53.664Z,81.00
2019-03-17T08:45:23.017Z,82.20
2019-03-17T08:47:57.759Z,82.20
2019-03-17T08:50:23.407Z,83.29
2019-03-17T08:52:52.570Z,82.84
2019-03-17T08:55:22.643Z,82.86
2019-03-17T08:57:51.830Z,82.89
2019-03-17T09:00:20.980Z,84.26
2019-03-17T09:02:50.311Z,83.83
2019-03-17T09:05:19.427Z,84.33
2019-03-17T09:07:48.601Z,83.96
2019-03-17T09:10:17.801Z,84.11
2019-03-17T09:12:46.955Z,83.27
2019-03-17T09:15:16.067Z,84.42
2019-03-17T09:17:45.356Z,84.62
2019-03-17T09:20:14.657Z,85.58
2019-03-17T09:22:43.815Z,85.60
2019-03-17T09:25:13.375Z,86.86
2019-03-17T09:27:42.657Z,87.36
2019-03-17T09:30:12.885Z,87.94
2019-03-17T09:32:42.038Z,87.94
2019-03-17T09:35:12.079Z,89.26
2019-03-17T09:37:42.306Z,89.57
2019-03-17T09:40:12.321Z,89.46
2019-03-17T09:42:41.494Z,89.46
2019-03-17T09:45:11.248Z,89.70
2019-03-17T09:47:41.400Z,89.96
2019-03-17T09:50:11.085Z,90.43
2019-03-17T09:52:40.216Z,90.25
2019-03-17T09:55:09.867Z,91.28
2019-03-17T09:57:39.344Z,91.46
2019-03-17T10:00:10.100Z,91.91
2019-03-17T10:02:39.292Z,92.46
2019-03-17T10:05:09.141Z,91.79
2019-03-17T10:07:38.291Z,90.21
2019-03-17T10:10:08.453Z,90.21
2019-03-17T10:12:37.821Z,91.87
2019-03-17T10:15:08.484Z,91.51
2019-03-17T10:17:37.783Z,90.38
2019-03-17T10:20:08.390Z,92.09
2019-03-17T10:22:39.812Z,92.09
2019-03-17T10:25:09.574Z,93.10
2019-03-17T10:27:38.697Z,92.05
2019-03-17T10:30:09.083Z,92.57
2019-03-17T10:32:38.368Z,92.57
2019-03-17T10:35:07.526Z,93.66
2019-03-17T10:37:36.718Z,93.70
2019-03-17T10:40:07.037Z,93.76
2019-03-17T10:42:36.228Z,94.42
2019-03-17T10:45:05.731Z,94.42
2019-03-17T10:47:35.046Z,94.59
2019-03-17T10:50:04.681Z,94.89
2019-03-17T10:52:33.926Z,96.67
2019-03-17T10:55:03.152Z,96.24
2019-03-17T10:57:32.360Z,97.22
2019-03-17T11:00:01.736Z,99.01
2019-03-17T11:02:30.838Z,99.79
2019-03-17T11:05:00.337Z,100.00
2019-03-17T11:07:29.483Z,100.00
2019-03-17T11:09:58.661Z,99.07
2019-03-17T11:12:28.131Z,98.68
2019-03-17T11:14:57.246Z,97.47
2019-03-17T11:17:47.436Z,94.88
2019-03-17T11:24:12.756Z,94.01
2019-03-17T11:26:42.180Z,93.72
2019-03-17T11:29:11.297Z,94.52
2019-03-17T11:31:40.431Z,93.93
2019-03-17T11:34:11.350Z,95.55
2019-03-17T11:36:41.002Z,94.03
2019-03-17T11:39:10.230Z,95.57
2019-03-17T11:41:39.320Z,94.72
2019-03-17T11:44:09.575Z,93.93
2019-03-17T11:46:38.705Z,94.57
2019-03-17T11:49:07.985Z,93.96
2019-03-17T11:51:37.081Z,94.92
2019-03-17T11:54:06.219Z,94.57
2019-03-17T11:56:35.320Z,94.03
2019-03-17T11:59:04.662Z,93.71
2019-03-17T12:01:34.110Z,95.15
2019-03-17T12:04:03.326Z,92.94
2019-03-17T12:06:32.535Z,93.52
2019-03-17T12:09:04.703Z,93.07
2019-03-17T12:11:33.930Z,92.47
2019-03-17T12:14:03.046Z,92.73
2019-03-17T12:16:32.190Z,90.64
2019-03-17T12:19:01.442Z,90.58
2019-03-17T12:21:30.642Z,89.85
2019-03-17T12:23:59.919Z,89.55
2019-03-17T12:26:29.068Z,90.20
2019-03-17T12:28:58.267Z,89.60
2019-03-17T12:31:29.195Z,89.11
2019-03-17T12:33:58.201Z,89.09
2019-03-17T12:36:27.372Z,89.37
2019-03-17T12:38:56.442Z,89.49
2019-03-17T12:41:25.503Z,88.94
2019-03-17T12:43:54.684Z,88.65
2019-03-17T12:46:23.756Z,89.03
2019-03-17T12:48:52.880Z,89.04
2019-03-17T12:51:21.989Z,89.11
2019-03-17T12:53:51.096Z,87.90
2019-03-17T12:56:20.321Z,87.83
2019-03-17T12:58:49.394Z,86.42
2019-03-17T13:01:18.503Z,86.76
2019-03-17T13:03:48.920Z,85.06
2019-03-17T13:06:18.069Z,85.22
2019-03-17T13:08:47.245Z,86.45
2019-03-17T13:11:16.612Z,84.62
2019-03-17T13:13:45.812Z,85.64
2019-03-17T13:16:14.913Z,86.60
2019-03-17T13:18:43.948Z,84.36
2019-03-17T13:21:13.180Z,85.63
2019-03-17T13:23:47.722Z,86.48
2019-03-17T13:26:16.946Z,86.89
2019-03-17T13:28:46.155Z,88.18
2019-03-17T13:31:15.794Z,88.74
2019-03-17T13:33:44.897Z,92.17
2019-03-17T13:36:14.511Z,94.63
2019-03-17T13:38:43.694Z,96.52
2019-03-17T13:41:12.958Z,98.19
2019-03-17T13:43:42.503Z,98.65
2019-03-17T13:46:11.871Z,98.31
2019-03-17T13:48:43.842Z,97.66
2019-03-17T13:51:13.100Z,96.37
2019-03-17T13:53:43.910Z,96.81
2019-03-17T13:56:13.301Z,96.29
2019-03-17T13:58:42.623Z,97.33
2019-03-17T14:01:13.873Z,96.17
2019-03-17T14:03:45.351Z,96.65
2019-03-17T14:06:15.494Z,95.76
2019-03-17T14:08:45.014Z,95.47
2019-03-17T14:11:14.133Z,94.64
2019-03-17T14:13:46.008Z,95.81
2019-03-17T14:16:19.288Z,94.19
2019-03-17T14:18:53.062Z,93.22
2019-03-17T14:21:24.397Z,93.05
2019-03-17T14:23:53.448Z,91.84
2019-03-17T14:26:22.594Z,91.82
2019-03-17T14:28:51.827Z,89.72
2019-03-17T14:31:21.129Z,90.33
2019-03-17T14:33:50.420Z,88.49
2019-03-17T14:36:19.693Z,91.08
2019-03-17T14:38:48.972Z,89.26
2019-03-17T14:41:18.103Z,86.53
2019-03-17T14:43:47.309Z,88.80
2019-03-17T14:46:16.697Z,86.84
2019-03-17T14:48:45.935Z,85.66
2019-03-17T14:51:15.161Z,86.68
2019-03-17T14:53:44.276Z,84.04
2019-03-17T14:56:13.586Z,86.59
2019-03-17T14:58:42.738Z,84.85
2019-03-17T15:01:11.880Z,84.04
2019-03-17T15:03:40.959Z,81.24
2019-03-17T15:06:10.034Z,81.26
2019-03-17T15:08:39.379Z,80.81
2019-03-17T15:11:08.518Z,78.92
2019-03-17T15:13:37.548Z,82.75
2019-03-17T15:16:06.940Z,81.35
2019-03-17T15:18:36.043Z,79.20
2019-03-17T15:21:05.333Z,78.91
2019-03-17T15:23:34.563Z,79.45
2019-03-17T15:26:03.652Z,79.40
2019-03-17T15:28:32.761Z,73.30
2019-03-17T15:31:11.547Z,74.54
2019-03-17T15:33:32.779Z,75.96
2019-03-17T15:36:01.993Z,71.02
2019-03-17T15:38:31.522Z,71.64
2019-03-17T15:41:00.621Z,71.47
2019-03-17T15:43:29.733Z,73.45
2019-03-17T15:45:58.827Z,71.40
2019-03-17T15:48:27.953Z,72.47
2019-03-17T15:50:57.052Z,72.46
2019-03-17T15:53:26.146Z,75.65
2019-03-17T15:55:55.273Z,73.79
2019-03-17T15:58:24.311Z,71.21
2019-03-17T16:00:53.418Z,71.36
2019-03-17T16:03:22.571Z,71.94
2019-03-17T16:05:51.760Z,73.55
2019-03-17T16:08:20.991Z,75.09
2019-03-17T16:10:50.109Z,73.87
2019-03-17T16:13:19.148Z,72.85
2019-03-17T16:15:48.908Z,72.98
2019-03-17T16:18:18.008Z,73.91
2019-03-17T16:20:47.007Z,75.79
2019-03-17T16:23:16.273Z,76.02
2019-03-17T16:25:45.657Z,76.41
2019-03-17T16:28:15.031Z,77.78
2019-03-17T16:30:44.168Z,76.77
2019-03-17T16:33:13.480Z,78.47
2019-03-17T16:35:42.704Z,78.31
2019-03-17T16:38:12.005Z,80.16
2019-03-17T16:40:41.211Z,79.67
2019-03-17T16:43:10.714Z,80.19
2019-03-17T16:45:39.950Z,80.68
2019-03-17T16:48:09.304Z,80.34
2019-03-17T16:50:38.648Z,80.55
2019-03-17T16:53:07.850Z,81.30
2019-03-17T16:55:36.971Z,80.80
2019-03-17T16:58:06.140Z,83.76
2019-03-17T17:00:35.359Z,82.94
2019-03-17T17:03:04.535Z,84.30
2019-03-17T17:05:35.173Z,81.60
2019-03-17T17:08:04.680Z,83.52
2019-03-17T17:10:33.753Z,82.95
2019-03-17T17:13:03.197Z,84.67
2019-03-17T17:15:32.362Z,85.26
2019-03-17T17:18:01.515Z,84.46
2019-03-17T17:20:30.645Z,84.50
2019-03-17T17:23:00.017Z,83.66
2019-03-17T17:25:29.115Z,84.66
2019-03-17T17:27:58.278Z,81.92
2019-03-17T17:30:27.371Z,82.81
2019-03-17T17:32:56.488Z,83.25
2019-03-17T17:35:25.611Z,80.54
2019-03-17T17:37:54.666Z,82.82
2019-03-17T17:40:23.757Z,81.43
2019-03-17T17:42:52.864Z,80.38
2019-03-17T17:45:21.960Z,80.43
2019-03-17T17:47:51.153Z,80.54
2019-03-17T17:50:20.204Z,81.85
2019-03-17T17:52:49.596Z,81.12
2019-03-17T17:55:18.830Z,83.30
2019-03-17T17:57:47.981Z,84.72
2019-03-17T18:00:20.163Z,85.41
2019-03-17T18:02:49.662Z,80.98
2019-03-17T18:05:18.830Z,84.17
2019-03-17T18:07:48.003Z,83.81
2019-03-17T18:10:17.244Z,85.11
2019-03-17T18:12:46.398Z,85.23
2019-03-17T18:15:17.178Z,83.10
2019-03-17T18:17:46.288Z,83.09
2019-03-17T18:20:15.400Z,82.82
2019-03-17T18:22:44.537Z,84.29
2019-03-17T18:25:14.707Z,84.15
2019-03-17T18:27:43.852Z,81.30
2019-03-17T18:30:14.487Z,82.99
2019-03-17T18:32:44.119Z,85.44
2019-03-17T18:35:13.384Z,85.19
2019-03-17T18:37:42.655Z,85.56
2019-03-17T18:40:12.844Z,86.25
2019-03-17T18:42:41.960Z,86.67
2019-03-17T18:45:13.551Z,87.81
2019-03-17T18:47:42.955Z,84.91
2019-03-17T18:50:20.300Z,85.76
2019-03-17T18:52:43.158Z,86.30
2019-03-17T18:55:12.335Z,86.75
2019-03-17T18:57:41.403Z,88.33
2019-03-17T19:00:13.601Z,87.34
2019-03-17T19:02:42.757Z,88.87
2019-03-17T19:05:12.387Z,90.66
2019-03-17T19:07:41.502Z,90.89
2019-03-17T19:10:11.161Z,92.05
2019-03-17T19:12:45.403Z,91.20
2019-03-17T19:15:12.874Z,91.28
2019-03-17T19:17:41.983Z,92.62
2019-03-17T19:20:12.425Z,92.49
2019-03-17T19:22:41.780Z,91.37
2019-03-17T19:25:12.056Z,92.28
2019-03-17T19:27:41.275Z,93.08
2019-03-17T19:30:11.973Z,93.38
2019-03-17T19:32:41.112Z,93.89
2019-03-17T19:35:10.610Z,94.03
2019-03-17T19:37:40.027Z,93.55
2019-03-17T19:40:10.849Z,93.37
2019-03-17T19:42:40.302Z,91.84
2019-03-17T19:45:09.566Z,91.36
2019-03-17T19:47:38.880Z,91.45
2019-03-17T19:50:08.739Z,87.51
2019-03-17T19:52:37.954Z,87.81
2019-03-17T19:55:07.498Z,85.86
2019-03-17T19:57:37.278Z,85.71
2019-03-17T20:00:06.806Z,84.90
2019-03-17T20:02:35.833Z,84.10
2019-03-17T20:05:05.201Z,81.02
2019-03-17T20:07:34.316Z,82.52
2019-03-17T20:10:03.429Z,81.73
2019-03-17T20:12:32.887Z,80.47
2019-03-17T20:15:02.256Z,78.85
2019-03-17T20:17:31.724Z,78.85
2019-03-17T20:20:00.798Z,79.77
2019-03-17T20:22:30.095Z,79.04
2019-03-17T20:24:59.124Z,80.32
2019-03-17T20:27:30.848Z,79.27
2019-03-17T20:29:59.902Z,78.30
2019-03-17T20:32:28.974Z,81.25
2019-03-17T20:34:58.114Z,82.34
2019-03-17T20:37:27.205Z,79.52
2019-03-17T20:39:56.305Z,80.19
2019-03-17T20:42:25.418Z,80.53
2019-03-17T20:45:00.375Z,82.34
2019-03-17T20:47:39.965Z,81.50
2019-03-17T20:50:10.368Z,82.27
2019-03-17T20:52:39.592Z,81.98
2019-03-17T20:55:09.086Z,82.71
2019-03-17T20:57:38.259Z,82.95
2019-03-17T21:00:09.600Z,83.50
2019-03-17T21:02:38.872Z,81.12
2019-03-17T21:05:09.273Z,82.36
2019-03-17T21:07:38.565Z,84.02
2019-03-17T21:10:09.114Z,83.17
2019-03-17T21:12:38.363Z,83.37
2019-03-17T21:15:08.703Z,81.58
2019-03-17T21:17:37.973Z,83.95
2019-03-17T21:20:09.039Z,82.20
2019-03-17T21:22:38.236Z,81.40
2019-03-17T21:25:07.531Z,84.08
2019-03-17T21:27:36.831Z,83.87
2019-03-17T21:30:09.028Z,82.48
2019-03-17T21:32:38.324Z,80.59
2019-03-17T21:35:07.632Z,82.72
2019-03-17T21:37:36.997Z,82.97
2019-03-17T21:40:06.314Z,80.94
2019-03-17T21:42:35.443Z,83.83
2019-03-17T21:45:04.685Z,82.70
2019-03-17T21:47:33.845Z,83.10
2019-03-17T21:50:02.951Z,84.15
2019-03-17T21:52:32.141Z,84.66
2019-03-17T21:55:01.194Z,81.46
2019-03-17T21:57:30.322Z,82.27
2019-03-17T21:59:59.552Z,84.60
2019-03-17T22:02:28.463Z,83.45
2019-03-17T22:04:57.612Z,82.36
2019-03-17T22:07:27.025Z,81.29
2019-03-17T22:09:56.095Z,81.01
2019-03-17T22:12:25.132Z,82.72
2019-03-17T22:14:54.166Z,83.34
2019-03-17T22:17:23.236Z,82.59
2019-03-17T22:19:52.313Z,81.66
2019-03-17T22:22:21.413Z,83.88
2019-03-17T22:24:50.528Z,83.33
2019-03-17T22:27:20.516Z,82.31
2019-03-17T22:29:49.963Z,82.79
2019-03-17T22:32:19.392Z,84.31
2019-03-17T22:34:49.490Z,83.67
2019-03-17T22:37:19.591Z,84.70
2019-03-17T22:39:50.554Z,85.31
2019-03-17T22:42:31.843Z,84.40
2019-03-17T22:45:07.537Z,83.22
2019-03-17T22:47:37.821Z,83.82
2019-03-17T22:50:10.369Z,85.29
2019-03-17T22:52:44.274Z,84.61
2019-03-17T22:55:15.089Z,84.25
2019-03-17T22:57:48.369Z,84.91
2019-03-17T23:00:22.703Z,84.88
2019-03-17T23:02:52.396Z,85.21
2019-03-17T23:05:23.319Z,84.60
2019-03-17T23:07:55.795Z,84.74
2019-03-17T23:10:28.413Z,84.81
2019-03-17T23:13:00.394Z,85.49
2019-03-17T23:15:30.919Z,85.83
2019-03-17T23:18:03.069Z,85.41
2019-03-17T23:20:39.616Z,86.19
2019-03-17T23:23:11.207Z,84.88
2019-03-17T23:25:44.039Z,83.70
2019-03-17T23:28:13.758Z,84.09
2019-03-17T23:30:44.441Z,84.00
2019-03-17T23:33:16.911Z,82.60
2019-03-17T23:35:49.408Z,82.75
2019-03-17T23:38:18.880Z,84.65
2019-03-17T23:40:48.896Z,84.83
2019-03-17T23:43:19.693Z,83.31
2019-03-17T23:45:50.662Z,83.00
2019-03-17T23:48:21.737Z,84.15
2019-03-17T23:50:51.695Z,84.74
2019-03-17T23:53:23.829Z,83.74
2019-03-17T23:55:54.403Z,84.16
2019-03-17T23:58:25.820Z,85.31
